createdAt,value
2023-02-03T00:06:10.171Z,100826.97
2023-02-03T00:09:20.066Z,100829.75
2023-02-03T00:16:29.478Z,100839.25
2023-02-03T00:19:40.780Z,100842.66
2023-02-03T00:40:28.214Z,100888.41
2023-02-03T00:55:37.867Z,100899.72
2023-02-03T01:20:31.257Z,100953.41
2023-02-03T01:27:30.109Z,100961.00
2023-02-03T01:38:27.988Z,100953.72
2023-02-03T01:41:41.891Z,100960.41
2023-02-03T01:48:59.334Z,100963.16
2023-02-03T02:40:36.804Z,100961.56
2023-02-03T02:44:23.451Z,100960.44
2023-02-03T02:48:10.006Z,100961.16
2023-02-03T03:02:34.675Z,100968.91
2023-02-03T03:06:02.036Z,100969.94
2023-02-03T03:13:25.742Z,100969.59
2023-02-03T03:24:09.439Z,100968.91
2023-02-03T03:27:29.424Z,100967.91
2023-02-03T03:37:56.145Z,100955.69
2023-02-03T03:41:18.563Z,100958.25
2023-02-03T04:02:39.644Z,100960.13
2023-02-03T04:05:43.258Z,100955.97
2023-02-03T04:08:45.446Z,100948.47
2023-02-03T04:12:03.087Z,100956.19
2023-02-03T04:15:05.832Z,100948.19
2023-02-03T04:18:11.709Z,100952.50
2023-02-03T04:21:14.240Z,100944.63
2023-02-03T04:24:19.904Z,100948.13
2023-02-03T04:27:23.887Z,100932.84
2023-02-03T04:30:26.977Z,100937.16
2023-02-03T04:33:32.860Z,100937.22
2023-02-03T04:36:37.518Z,100936.28
2023-02-03T04:39:43.041Z,100946.47
2023-02-03T04:42:45.932Z,100946.16
2023-02-03T04:45:53.604Z,100952.37
2023-02-03T04:48:56.116Z,100947.81
2023-02-03T04:51:59.227Z,100940.88
2023-02-03T04:55:05.992Z,100937.22
2023-02-03T04:58:10.306Z,100940.78
2023-02-03T05:01:17.504Z,100945.03
2023-02-03T05:04:21.614Z,100936.94
2023-02-03T05:07:29.391Z,100927.59
2023-02-03T05:10:32.723Z,100932.78
2023-02-03T05:13:35.496Z,100934.53
2023-02-03T05:16:37.802Z,100933.47
2023-02-03T05:19:43.325Z,100940.34
2023-02-03T05:22:46.280Z,100934.91
2023-02-03T05:25:48.528Z,100945.22
2023-02-03T05:28:56.055Z,100940.16
2023-02-03T05:32:01.516Z,100947.88
2023-02-03T05:35:04.143Z,100963.22
2023-02-03T05:38:07.137Z,100958.84
2023-02-03T05:41:32.105Z,100945.87
2023-02-03T05:44:35.201Z,100956.06
2023-02-03T05:47:40.845Z,100938.16
2023-02-03T05:50:48.444Z,100959.53
2023-02-03T05:53:56.257Z,100960.59
2023-02-03T05:56:59.850Z,100953.59
2023-02-03T06:00:02.760Z,100956.81
2023-02-03T06:03:06.537Z,100961.94
2023-02-03T06:06:09.851Z,100961.12
2023-02-03T06:09:17.640Z,100953.34
2023-02-03T06:12:20.633Z,100949.75
2023-02-03T06:15:23.532Z,100939.41
2023-02-03T06:18:26.016Z,100940.25
2023-02-03T06:21:36.256Z,100947.06
2023-02-03T06:24:39.147Z,100945.34
2023-02-03T06:27:42.593Z,100951.38
2023-02-03T06:30:44.835Z,100959.94
2023-02-03T06:33:48.004Z,100970.31
2023-02-03T06:36:52.525Z,100957.44
2023-02-03T06:39:57.825Z,100955.81
2023-02-03T06:43:00.767Z,100968.50
2023-02-03T06:46:06.268Z,100973.66
2023-02-03T06:49:12.104Z,100982.28
2023-02-03T06:52:19.875Z,100973.56
2023-02-03T06:55:25.938Z,100980.31
2023-02-03T06:58:28.103Z,100978.22
2023-02-03T07:01:31.564Z,100968.47
2023-02-03T07:04:37.397Z,100973.63
2023-02-03T07:07:40.093Z,100958.72
2023-02-03T07:10:47.326Z,100961.22
2023-02-03T07:13:50.409Z,100966.63
2023-02-03T07:17:00.180Z,100952.44
2023-02-03T07:20:04.183Z,100963.78
2023-02-03T07:23:09.237Z,100959.19
2023-02-03T07:26:19.146Z,100959.91
2023-02-03T07:29:22.466Z,100959.69
2023-02-03T07:32:27.153Z,100958.84
2023-02-03T07:35:29.917Z,100957.75
2023-02-03T07:38:33.607Z,100961.28
2023-02-03T07:41:39.530Z,100970.66
2023-02-03T07:44:46.607Z,100968.16
2023-02-03T07:47:56.731Z,100980.97
2023-02-03T07:51:02.627Z,100977.44
2023-02-03T07:54:10.968Z,100976.41
2023-02-03T07:57:20.586Z,100984.88
2023-02-03T08:00:22.960Z,100978.91
2023-02-03T08:03:28.218Z,100986.53
2023-02-03T08:06:34.181Z,101002.31
2023-02-03T08:09:40.756Z,100997.25
2023-02-03T08:12:49.865Z,100988.84
2023-02-03T08:15:55.492Z,100981.03
2023-02-03T08:19:02.511Z,100985.38
2023-02-03T08:22:08.354Z,100992.91
2023-02-03T08:25:18.106Z,100997.03
2023-02-03T08:28:21.013Z,100986.75
2023-02-03T08:31:24.423Z,100987.69
2023-02-03T08:34:39.662Z,100979.91
2023-02-03T08:37:42.753Z,100976.59
2023-02-03T08:40:49.745Z,100991.06
2023-02-03T08:43:56.310Z,100995.56
2023-02-03T08:47:03.190Z,100989.56
2023-02-03T08:50:06.784Z,100994.00
2023-02-03T08:53:10.715Z,101000.19
2023-02-03T08:56:14.831Z,101002.47
2023-02-03T08:59:23.961Z,101002.28
2023-02-03T09:02:42.719Z,101008.34
2023-02-03T09:05:50.212Z,101004.88
2023-02-03T09:08:55.074Z,101009.47
2023-02-03T09:12:05.637Z,101003.66
2023-02-03T09:15:09.009Z,101005.38
2023-02-03T09:18:14.702Z,101008.38
2023-02-03T09:21:33.481Z,101008.66
2023-02-03T09:24:42.270Z,101002.13
2023-02-03T09:27:46.142Z,101006.66
2023-02-03T09:30:48.861Z,100999.00
2023-02-03T09:33:56.028Z,100985.63
2023-02-03T09:37:04.032Z,100989.31
2023-02-03T09:40:08.052Z,100981.03
2023-02-03T09:43:15.158Z,100971.16
2023-02-03T09:46:23.196Z,100963.66
2023-02-03T09:49:30.254Z,100955.16
2023-02-03T09:52:35.056Z,100947.41
2023-02-03T09:55:41.936Z,100939.38
2023-02-03T09:58:46.166Z,100932.56
2023-02-03T10:02:10.446Z,100922.13
2023-02-03T10:05:31.958Z,100916.25
2023-02-03T10:08:44.080Z,100902.53
2023-02-03T10:12:07.135Z,100904.94
2023-02-03T10:15:42.987Z,100894.66
2023-02-03T10:18:51.197Z,100876.66
2023-02-03T10:21:58.147Z,100877.47
2023-02-03T10:25:06.290Z,100872.28
2023-02-03T10:28:26.563Z,100862.81
2023-02-03T10:31:32.562Z,100848.13
2023-02-03T10:34:35.113Z,100846.53
2023-02-03T10:37:49.645Z,100829.28
2023-02-03T10:44:23.024Z,100834.63
2023-02-03T10:47:35.345Z,100823.59
2023-02-03T10:50:41.501Z,100809.87
2023-02-03T10:53:43.633Z,100804.03
2023-02-03T10:56:45.950Z,100805.75
2023-02-03T10:59:48.571Z,100799.97
2023-02-03T11:03:02.652Z,100781.25
2023-02-03T11:06:06.889Z,100776.28
2023-02-03T11:09:22.987Z,100777.28
2023-02-03T11:12:25.129Z,100761.16
2023-02-03T11:15:27.344Z,100758.66
2023-02-03T11:18:32.492Z,100746.72
2023-02-03T11:21:37.449Z,100730.62
2023-02-03T11:24:41.119Z,100742.53
2023-02-03T11:27:44.986Z,100728.03
2023-02-03T11:30:55.062Z,100704.00
2023-02-03T11:34:02.255Z,100720.50
2023-02-03T11:37:26.400Z,100713.91
2023-02-03T11:40:29.710Z,100713.88
2023-02-03T11:43:32.448Z,100707.06
2023-02-03T11:46:37.236Z,100701.03
2023-02-03T11:49:51.678Z,100681.31
2023-02-03T11:52:56.573Z,100675.34
2023-02-03T11:56:13.904Z,100667.56
2023-02-03T11:59:32.399Z,100651.31
2023-02-03T12:02:53.182Z,100648.75
2023-02-03T12:06:01.492Z,100636.97
2023-02-03T12:09:06.217Z,100627.50
2023-02-03T12:12:47.005Z,100624.81
2023-02-03T12:16:15.586Z,100604.28
2023-02-03T12:19:30.713Z,100603.31
2023-02-03T12:22:51.185Z,100593.06
2023-02-03T12:26:11.978Z,100583.63
2023-02-03T12:29:20.733Z,100576.66
2023-02-03T12:32:22.664Z,100565.38
2023-02-03T12:35:36.342Z,100552.72
2023-02-03T12:38:43.956Z,100534.69
2023-02-03T12:41:54.419Z,100523.56
2023-02-03T12:45:06.431Z,100520.12
2023-02-03T12:48:14.070Z,100509.88
2023-02-03T12:51:20.061Z,100505.63
2023-02-03T12:54:35.197Z,100504.53
2023-02-03T12:57:55.732Z,100489.19
2023-02-03T13:01:05.081Z,100487.66
2023-02-03T13:04:11.938Z,100469.12
2023-02-03T13:07:21.403Z,100460.78
2023-02-03T13:10:30.222Z,100453.06
2023-02-03T13:13:39.972Z,100444.44
2023-02-03T13:16:44.935Z,100431.56
2023-02-03T13:19:49.792Z,100425.31
2023-02-03T13:22:53.282Z,100425.94
2023-02-03T13:26:14.426Z,100416.37
2023-02-03T13:29:27.849Z,100412.06
2023-02-03T13:32:38.933Z,100398.06
2023-02-03T13:35:46.835Z,100390.44
2023-02-03T13:38:49.092Z,100379.47
2023-02-03T13:41:55.961Z,100376.06
2023-02-03T13:45:04.189Z,100374.94
2023-02-03T13:48:17.716Z,100366.22
2023-02-03T13:51:24.257Z,100357.56
2023-02-03T13:54:34.978Z,100354.94
2023-02-03T13:57:38.415Z,100340.16
2023-02-03T14:00:43.423Z,100342.59
2023-02-03T14:03:45.520Z,100327.97
2023-02-03T14:06:52.509Z,100328.81
2023-02-03T14:10:13.188Z,100324.38
2023-02-03T14:13:20.578Z,100317.34
2023-02-03T14:16:24.161Z,100315.50
2023-02-03T14:19:26.069Z,100311.06
2023-02-03T14:22:28.798Z,100311.06
2023-02-03T14:25:32.073Z,100300.72
2023-02-03T14:28:42.289Z,100294.56
2023-02-03T14:31:55.882Z,100292.91
2023-02-03T14:34:58.551Z,100290.19
2023-02-03T14:38:09.454Z,100294.22
2023-02-03T14:41:11.458Z,100284.78
2023-02-03T14:44:22.062Z,100282.94
2023-02-03T14:47:42.823Z,100283.66
2023-02-03T14:50:57.834Z,100269.03
2023-02-03T14:54:05.728Z,100259.69
2023-02-03T14:57:26.152Z,100268.19
2023-02-03T15:00:33.470Z,100258.47
2023-02-03T15:03:37.870Z,100250.59
2023-02-03T15:06:41.601Z,100250.31
2023-02-03T15:09:46.051Z,100242.69
2023-02-03T15:12:49.606Z,100234.09
2023-02-03T15:15:52.935Z,100225.53
2023-02-03T15:18:59.847Z,100219.31
2023-02-03T15:22:02.573Z,100220.00
2023-02-03T15:25:14.506Z,100208.78
2023-02-03T15:28:20.940Z,100210.41
2023-02-03T15:31:23.564Z,100199.00
2023-02-03T15:34:31.614Z,100184.31
2023-02-03T15:37:39.096Z,100186.06
2023-02-03T15:40:45.329Z,100178.28
2023-02-03T15:43:49.612Z,100179.09
2023-02-03T15:46:52.466Z,100176.25
2023-02-03T15:50:06.432Z,100167.50
2023-02-03T15:53:15.727Z,100166.53
2023-02-03T15:56:20.095Z,100175.84
2023-02-03T15:59:29.305Z,100167.81
2023-02-03T16:02:33.782Z,100161.56
2023-02-03T16:05:37.330Z,100162.28
2023-02-03T16:08:42.776Z,100161.41
2023-02-03T16:11:44.837Z,100154.63
2023-02-03T16:14:47.059Z,100159.78
2023-02-03T16:17:54.417Z,100144.22
2023-02-03T16:20:56.359Z,100156.16
2023-02-03T16:23:58.743Z,100138.22
2023-02-03T16:27:20.780Z,100127.19
2023-02-03T16:30:42.510Z,100125.47
2023-02-03T16:34:04.540Z,100117.84
2023-02-03T16:37:45.276Z,100112.84
2023-02-03T16:41:06.149Z,100103.38
2023-02-03T16:44:30.040Z,100088.03
2023-02-03T16:47:51.304Z,100087.34
2023-02-03T16:50:58.982Z,100083.94
2023-02-03T16:54:01.291Z,100073.38
2023-02-03T16:57:03.115Z,100064.00
2023-02-03T17:00:06.224Z,100055.31
2023-02-03T17:03:10.067Z,100031.09
2023-02-03T17:06:12.587Z,100032.78
2023-02-03T17:09:14.588Z,100019.00
2023-02-03T17:12:16.466Z,100003.13
2023-02-03T17:15:18.374Z,100000.37
2023-02-03T17:18:20.856Z,99993.34
2023-02-03T17:21:24.415Z,99991.75
2023-02-03T17:24:26.148Z,99989.69
2023-02-03T17:27:28.113Z,99984.31
2023-02-03T17:30:33.897Z,99988.50
2023-02-03T17:33:35.801Z,99968.59
2023-02-03T17:36:37.636Z,99972.06
2023-02-03T17:56:09.217Z,99959.28
2023-02-03T17:59:11.032Z,99957.47
2023-02-03T18:02:12.887Z,99935.78
2023-02-03T18:05:14.700Z,99951.25
2023-02-03T18:08:20.251Z,99938.06
2023-02-03T18:11:22.238Z,99935.91
2023-02-03T18:14:24.098Z,99925.19
2023-02-03T18:17:25.927Z,99932.06
2023-02-03T18:20:28.178Z,99909.31
2023-02-03T18:23:33.386Z,99912.75
2023-02-03T18:26:37.050Z,99912.50
2023-02-03T18:29:40.896Z,99901.78
2023-02-03T18:32:42.803Z,99898.00
2023-02-03T18:35:44.792Z,99886.59
2023-02-03T18:38:47.383Z,99877.50
2023-02-03T18:41:49.287Z,99869.75
2023-02-03T18:44:51.081Z,99879.59
2023-02-03T18:47:52.892Z,99873.72
2023-02-03T18:50:54.681Z,99862.69
2023-02-03T18:53:57.430Z,99877.88
2023-02-03T18:56:59.374Z,99877.00
2023-02-03T19:00:01.275Z,99882.69
2023-02-03T19:03:03.158Z,99895.59
2023-02-03T19:06:08.927Z,99898.19
2023-02-03T19:09:12.109Z,99915.13
2023-02-03T19:12:13.946Z,99911.22
2023-02-03T19:15:15.783Z,99895.66
2023-02-03T19:18:17.617Z,99883.06
2023-02-03T19:21:19.408Z,99871.66
2023-02-03T19:24:21.673Z,99865.91
2023-02-03T19:27:24.015Z,99864.97
2023-02-03T19:30:25.780Z,99850.88
2023-02-03T19:33:27.590Z,99866.81
2023-02-03T19:36:30.168Z,99883.00
2023-02-03T19:39:32.480Z,99884.66
2023-02-03T19:42:34.347Z,99856.19
2023-02-03T19:45:36.129Z,99843.72
2023-02-03T19:48:38.511Z,99856.03
2023-02-03T19:51:40.874Z,99853.69
2023-02-03T19:54:42.712Z,99858.41
2023-02-03T19:57:44.509Z,99850.53
2023-02-03T20:00:46.557Z,99862.91
2023-02-03T20:03:48.674Z,99876.41
2023-02-03T20:06:50.594Z,99878.16
2023-02-03T20:09:52.456Z,99889.81
2023-02-03T20:12:54.935Z,99892.13
2023-02-03T20:15:56.916Z,99883.78
2023-02-03T20:19:01.084Z,99892.22
2023-02-03T20:22:02.942Z,99892.66
2023-02-03T20:25:06.237Z,99894.34
2023-02-03T20:28:09.029Z,99888.75
2023-02-03T20:31:11.103Z,99875.69
2023-02-03T20:34:13.023Z,99894.25
2023-02-03T20:37:14.928Z,99886.87
2023-02-03T20:40:17.654Z,99873.00
2023-02-03T20:43:23.758Z,99869.00
2023-02-03T20:46:26.212Z,99864.87
2023-02-03T20:49:28.177Z,99860.00
2023-02-03T20:52:30.185Z,99852.03
2023-02-03T20:55:32.162Z,99834.56
2023-02-03T20:58:35.180Z,99821.41
2023-02-03T21:01:37.491Z,99823.03
2023-02-03T21:04:57.955Z,99823.78
2023-02-03T21:08:00.296Z,99825.28
2023-02-03T21:11:03.947Z,99830.44
2023-02-03T21:14:17.474Z,99834.81
2023-02-03T21:17:20.813Z,99842.28
2023-02-03T21:20:29.365Z,99850.53
2023-02-03T21:23:40.174Z,99844.72
2023-02-03T21:26:42.966Z,99854.66
2023-02-03T21:29:46.857Z,99839.69
2023-02-03T21:32:49.948Z,99835.47
2023-02-03T21:35:52.649Z,99844.62
2023-02-03T21:38:58.280Z,99835.53
2023-02-03T21:42:42.265Z,99834.41
2023-02-03T21:45:46.836Z,99849.37
2023-02-03T21:48:52.404Z,99864.72
2023-02-03T21:51:55.803Z,99870.25
2023-02-03T21:55:02.379Z,99869.72
2023-02-03T21:58:19.044Z,99868.06
2023-02-03T22:01:24.800Z,99854.38
2023-02-03T22:04:32.581Z,99861.97
2023-02-03T22:07:36.680Z,99855.38
2023-02-03T22:10:39.411Z,99867.31
2023-02-03T22:13:43.560Z,99872.00
2023-02-03T22:16:50.122Z,99885.75
2023-02-03T22:19:54.565Z,99898.09
2023-02-03T22:23:01.639Z,99903.09
2023-02-03T22:26:05.547Z,99895.44
2023-02-03T22:29:09.152Z,99905.59
2023-02-03T22:32:15.107Z,99903.66
2023-02-03T22:35:21.887Z,99904.66
2023-02-03T22:38:26.927Z,99912.34
2023-02-03T22:41:30.730Z,99916.19
2023-02-03T22:44:38.742Z,99909.00
2023-02-03T22:47:42.446Z,99911.34
2023-02-03T22:50:48.044Z,99923.84
2023-02-03T22:53:56.204Z,99936.12
2023-02-03T22:57:03.080Z,99948.22
2023-02-03T23:00:15.815Z,99926.88
2023-02-03T23:03:19.609Z,99949.03
2023-02-03T23:06:29.265Z,99928.91
2023-02-03T23:09:35.516Z,99926.91
2023-02-03T23:12:41.483Z,99905.59
2023-02-03T23:15:50.150Z,99909.78
2023-02-03T23:18:56.467Z,99919.28
2023-02-03T23:22:02.434Z,99916.97
2023-02-03T23:25:08.187Z,99902.25
2023-02-03T23:28:19.189Z,99894.59
2023-02-03T23:31:26.340Z,99905.78
2023-02-03T23:34:49.813Z,99885.16
2023-02-03T23:37:54.766Z,99880.81
2023-02-03T23:40:58.968Z,99875.41
2023-02-03T23:44:03.798Z,99872.91
2023-02-03T23:47:08.326Z,99883.25
2023-02-03T23:50:15.578Z,99884.06
2023-02-03T23:53:24.158Z,99895.81
2023-02-03T23:56:27.528Z,99875.62
2023-02-03T23:59:32.999Z,99884.25
